sensor_id;sensor_type;location;lat;lon;timestamp;temperature;humidity
48162;DHT22;33950;48.154;16.316;2022-09-17T00:01:45;14.30;95.80
48162;DHT22;33950;48.154;16.316;2022-09-17T00:04:31;14.30;95.90
48162;DHT22;33950;48.154;16.316;2022-09-17T00:07:17;14.30;95.90
48162;DHT22;33950;48.154;16.316;2022-09-17T00:10:05;14.30;96.00
48162;DHT22;33950;48.154;16.316;2022-09-17T00:12:51;14.30;95.80
48162;DHT22;33950;48.154;16.316;2022-09-17T00:15:41;14.40;95.90
48162;DHT22;33950;48.154;16.316;2022-09-17T00:18:28;14.40;95.80
48162;DHT22;33950;48.154;16.316;2022-09-17T00:21:15;14.30;95.90
48162;DHT22;33950;48.154;16.316;2022-09-17T00:24:03;14.30;95.70
48162;DHT22;33950;48.154;16.316;2022-09-17T00:26:51;14.20;95.90
48162;DHT22;33950;48.154;16.316;2022-09-17T00:29:38;14.20;96.00
48162;DHT22;33950;48.154;16.316;2022-09-17T00:32:24;14.20;96.10
48162;DHT22;33950;48.154;16.316;2022-09-17T00:35:11;14.20;96.20
48162;DHT22;33950;48.154;16.316;2022-09-17T00:37:57;14.20;96.40
48162;DHT22;33950;48.154;16.316;2022-09-17T00:40:43;14.20;96.10
48162;DHT22;33950;48.154;16.316;2022-09-17T00:43:38;14.20;96.10
48162;DHT22;33950;48.154;16.316;2022-09-17T00:46:29;14.10;96.20
48162;DHT22;33950;48.154;16.316;2022-09-17T00:49:20;14.00;96.40
48162;DHT22;33950;48.154;16.316;2022-09-17T00:52:11;14.00;96.30
48162;DHT22;33950;48.154;16.316;2022-09-17T00:55:11;13.90;96.40
48162;DHT22;33950;48.154;16.316;2022-09-17T00:58:01;13.90;96.50
48162;DHT22;33950;48.154;16.316;2022-09-17T01:00:49;13.90;96.50
48162;DHT22;33950;48.154;16.316;2022-09-17T01:03:35;13.80;96.60
48162;DHT22;33950;48.154;16.316;2022-09-17T01:06:27;13.80;96.70
48162;DHT22;33950;48.154;16.316;2022-09-17T01:09:24;13.80;96.80
48162;DHT22;33950;48.154;16.316;2022-09-17T01:12:20;13.90;96.80
48162;DHT22;33950;48.154;16.316;2022-09-17T01:15:20;13.90;96.70
48162;DHT22;33950;48.154;16.316;2022-09-17T01:18:18;14.00;96.60
48162;DHT22;33950;48.154;16.316;2022-09-17T01:21:37;14.20;96.50
48162;DHT22;33950;48.154;16.316;2022-09-17T01:24:45;14.20;96.20
48162;DHT22;33950;48.154;16.316;2022-09-17T01:34:25;14.30;96.10
48162;DHT22;33950;48.154;16.316;2022-09-17T01:37:17;14.30;96.10
48162;DHT22;33950;48.154;16.316;2022-09-17T01:40:09;14.30;96.20
48162;DHT22;33950;48.154;16.316;2022-09-17T01:43:01;14.30;96.10
48162;DHT22;33950;48.154;16.316;2022-09-17T01:45:54;14.20;96.40
48162;DHT22;33950;48.154;16.316;2022-09-17T01:48:45;14.30;96.40
48162;DHT22;33950;48.154;16.316;2022-09-17T01:51:36;14.30;96.40
48162;DHT22;33950;48.154;16.316;2022-09-17T01:54:26;14.30;96.40
48162;DHT22;33950;48.154;16.316;2022-09-17T01:57:15;14.30;96.30
48162;DHT22;33950;48.154;16.316;2022-09-17T02:00:06;14.30;96.40
48162;DHT22;33950;48.154;16.316;2022-09-17T02:02:58;14.10;96.50
48162;DHT22;33950;48.154;16.316;2022-09-17T02:05:50;14.10;96.50
48162;DHT22;33950;48.154;16.316;2022-09-17T02:08:42;13.90;96.80
48162;DHT22;33950;48.154;16.316;2022-09-17T02:11:31;13.80;97.10
48162;DHT22;33950;48.154;16.316;2022-09-17T02:14:23;13.80;97.00
48162;DHT22;33950;48.154;16.316;2022-09-17T06:05:10;13.70;98.00
48162;DHT22;33950;48.154;16.316;2022-09-17T06:07:56;13.70;97.90
48162;DHT22;33950;48.154;16.316;2022-09-17T06:10:42;13.70;97.80
48162;DHT22;33950;48.154;16.316;2022-09-17T06:13:28;13.60;97.90
48162;DHT22;33950;48.154;16.316;2022-09-17T06:16:14;13.60;98.00
48162;DHT22;33950;48.154;16.316;2022-09-17T06:19:00;13.60;98.00
48162;DHT22;33950;48.154;16.316;2022-09-17T06:21:48;13.70;98.00
48162;DHT22;33950;48.154;16.316;2022-09-17T06:24:35;13.90;97.70
48162;DHT22;33950;48.154;16.316;2022-09-17T06:27:21;13.90;97.40
48162;DHT22;33950;48.154;16.316;2022-09-17T06:30:07;13.90;97.50
48162;DHT22;33950;48.154;16.316;2022-09-17T06:32:54;14.00;97.50
48162;DHT22;33950;48.154;16.316;2022-09-17T06:35:40;13.90;97.50
48162;DHT22;33950;48.154;16.316;2022-09-17T06:38:29;13.80;97.80
48162;DHT22;33950;48.154;16.316;2022-09-17T06:41:16;13.80;97.80
48162;DHT22;33950;48.154;16.316;2022-09-17T06:44:02;13.80;97.60
48162;DHT22;33950;48.154;16.316;2022-09-17T06:46:49;13.70;97.70
48162;DHT22;33950;48.154;16.316;2022-09-17T06:49:35;13.70;97.60
48162;DHT22;33950;48.154;16.316;2022-09-17T06:52:22;13.80;97.60
48162;DHT22;33950;48.154;16.316;2022-09-17T06:55:09;13.80;97.80
48162;DHT22;33950;48.154;16.316;2022-09-17T06:57:57;13.80;97.50
48162;DHT22;33950;48.154;16.316;2022-09-17T07:00:44;14.00;97.40
48162;DHT22;33950;48.154;16.316;2022-09-17T07:03:30;14.20;97.10
48162;DHT22;33950;48.154;16.316;2022-09-17T07:06:16;14.20;96.90
48162;DHT22;33950;48.154;16.316;2022-09-17T07:09:02;14.20;97.00
48162;DHT22;33950;48.154;16.316;2022-09-17T07:11:50;14.00;97.00
48162;DHT22;33950;48.154;16.316;2022-09-17T07:14:36;13.80;97.30
48162;DHT22;33950;48.154;16.316;2022-09-17T07:17:22;13.80;97.50
48162;DHT22;33950;48.154;16.316;2022-09-17T07:20:09;13.70;97.50
48162;DHT22;33950;48.154;16.316;2022-09-17T07:22:55;13.70;97.60
48162;DHT22;33950;48.154;16.316;2022-09-17T07:25:42;13.60;97.80
48162;DHT22;33950;48.154;16.316;2022-09-17T07:28:29;13.60;97.60
48162;DHT22;33950;48.154;16.316;2022-09-17T07:31:16;13.60;97.80
48162;DHT22;33950;48.154;16.316;2022-09-17T07:34:02;13.70;97.70
48162;DHT22;33950;48.154;16.316;2022-09-17T07:36:48;13.50;97.60
48162;DHT22;33950;48.154;16.316;2022-09-17T07:39:34;13.60;97.80
48162;DHT22;33950;48.154;16.316;2022-09-17T07:42:20;13.60;97.50
48162;DHT22;33950;48.154;16.316;2022-09-17T07:45:08;13.60;97.40
48162;DHT22;33950;48.154;16.316;2022-09-17T07:47:54;13.70;97.40
48162;DHT22;33950;48.154;16.316;2022-09-17T07:50:40;13.90;97.30
48162;DHT22;33950;48.154;16.316;2022-09-17T07:53:27;13.90;97.10
48162;DHT22;33950;48.154;16.316;2022-09-17T08:58:38;13.50;95.10
48162;DHT22;33950;48.154;16.316;2022-09-17T09:01:34;13.50;95.10
48162;DHT22;33950;48.154;16.316;2022-09-17T09:07:55;13.50;95.10
48162;DHT22;33950;48.154;16.316;2022-09-17T09:10:47;13.40;95.10
48162;DHT22;33950;48.154;16.316;2022-09-17T09:13:38;13.40;95.20
48162;DHT22;33950;48.154;16.316;2022-09-17T09:16:30;13.40;95.10
48162;DHT22;33950;48.154;16.316;2022-09-17T09:19:20;13.40;94.90
48162;DHT22;33950;48.154;16.316;2022-09-17T09:22:27;13.50;94.90
48162;DHT22;33950;48.154;16.316;2022-09-17T09:25:20;13.40;94.80
48162;DHT22;33950;48.154;16.316;2022-09-17T09:28:16;13.40;94.60
48162;DHT22;33950;48.154;16.316;2022-09-17T09:31:20;13.40;94.70
48162;DHT22;33950;48.154;16.316;2022-09-17T09:34:11;13.20;94.80
48162;DHT22;33950;48.154;16.316;2022-09-17T09:37:09;13.20;94.70
48162;DHT22;33950;48.154;16.316;2022-09-17T09:40:02;13.20;94.40
48162;DHT22;33950;48.154;16.316;2022-09-17T09:42:52;13.20;94.40
48162;DHT22;33950;48.154;16.316;2022-09-17T09:45:56;13.20;94.60
48162;DHT22;33950;48.154;16.316;2022-09-17T09:48:51;13.20;94.20
48162;DHT22;33950;48.154;16.316;2022-09-17T09:51:48;13.20;94.60
48162;DHT22;33950;48.154;16.316;2022-09-17T09:54:50;13.00;94.10
48162;DHT22;33950;48.154;16.316;2022-09-17T09:57:43;13.20;94.40
48162;DHT22;33950;48.154;16.316;2022-09-17T10:00:34;13.30;94.90
48162;DHT22;33950;48.154;16.316;2022-09-17T10:03:24;13.40;94.10
48162;DHT22;33950;48.154;16.316;2022-09-17T10:06:13;13.40;94.10
48162;DHT22;33950;48.154;16.316;2022-09-17T12:11:35;13.90;92.80
48162;DHT22;33950;48.154;16.316;2022-09-17T12:14:27;13.80;92.30
48162;DHT22;33950;48.154;16.316;2022-09-17T12:17:20;13.60;92.30
48162;DHT22;33950;48.154;16.316;2022-09-17T12:20:27;13.50;92.60
48162;DHT22;33950;48.154;16.316;2022-09-17T12:23:19;13.40;92.90
48162;DHT22;33950;48.154;16.316;2022-09-17T12:26:19;13.30;93.00
48162;DHT22;33950;48.154;16.316;2022-09-17T12:29:22;13.40;93.10
48162;DHT22;33950;48.154;16.316;2022-09-17T12:32:27;13.50;93.00
48162;DHT22;33950;48.154;16.316;2022-09-17T12:42:00;13.50;92.80
48162;DHT22;33950;48.154;16.316;2022-09-17T12:45:11;13.50;92.80
48162;DHT22;33950;48.154;16.316;2022-09-17T12:48:36;13.50;92.80
48162;DHT22;33950;48.154;16.316;2022-09-17T12:51:48;13.40;92.80
48162;DHT22;33950;48.154;16.316;2022-09-17T12:55:01;13.40;92.90
48162;DHT22;33950;48.154;16.316;2022-09-17T12:58:00;13.20;93.30
48162;DHT22;33950;48.154;16.316;2022-09-17T13:00:52;13.20;93.10
48162;DHT22;33950;48.154;16.316;2022-09-17T13:03:43;13.30;93.20
48162;DHT22;33950;48.154;16.316;2022-09-17T13:07:01;13.40;93.10
48162;DHT22;33950;48.154;16.316;2022-09-17T13:10:18;13.40;93.00
48162;DHT22;33950;48.154;16.316;2022-09-17T13:13:27;13.30;93.00
48162;DHT22;33950;48.154;16.316;2022-09-17T13:16:22;13.10;93.10
48162;DHT22;33950;48.154;16.316;2022-09-17T13:19:18;13.10;93.40
48162;DHT22;33950;48.154;16.316;2022-09-17T13:22:12;13.10;93.40
48162;DHT22;33950;48.154;16.316;2022-09-17T13:25:04;13.00;93.50
48162;DHT22;33950;48.154;16.316;2022-09-17T13:28:05;13.10;93.40
48162;DHT22;33950;48.154;16.316;2022-09-17T13:30:57;13.10;93.20
48162;DHT22;33950;48.154;16.316;2022-09-17T13:33:57;13.10;93.60
48162;DHT22;33950;48.154;16.316;2022-09-17T13:36:47;13.00;93.20
48162;DHT22;33950;48.154;16.316;2022-09-17T13:39:43;13.00;93.20
48162;DHT22;33950;48.154;16.316;2022-09-17T13:42:40;13.00;93.30
48162;DHT22;33950;48.154;16.316;2022-09-17T13:45:28;13.00;93.50
48162;DHT22;33950;48.154;16.316;2022-09-17T13:48:18;12.90;93.30
48162;DHT22;33950;48.154;16.316;2022-09-17T13:54:36;13.10;93.20
48162;DHT22;33950;48.154;16.316;2022-09-17T13:57:23;13.20;93.20
48162;DHT22;33950;48.154;16.316;2022-09-17T14:00:47;13.10;93.20
48162;DHT22;33950;48.154;16.316;2022-09-17T14:03:45;13.10;93.40
48162;DHT22;33950;48.154;16.316;2022-09-17T14:06:49;13.10;93.40
48162;DHT22;33950;48.154;16.316;2022-09-17T14:09:50;13.20;93.40
48162;DHT22;33950;48.154;16.316;2022-09-17T14:12:59;13.10;93.40
48162;DHT22;33950;48.154;16.316;2022-09-17T14:16:00;13.20;93.30
48162;DHT22;33950;48.154;16.316;2022-09-17T14:18:58;13.20;93.50
48162;DHT22;33950;48.154;16.316;2022-09-17T14:21:55;13.10;93.40
48162;DHT22;33950;48.154;16.316;2022-09-17T14:24:48;13.20;93.50
48162;DHT22;33950;48.154;16.316;2022-09-17T14:27:46;13.30;93.40
48162;DHT22;33950;48.154;16.316;2022-09-17T14:30:35;13.30;93.20
48162;DHT22;33950;48.154;16.316;2022-09-17T14:33:25;13.20;93.40
48162;DHT22;33950;48.154;16.316;2022-09-17T14:36:17;13.20;93.20
48162;DHT22;33950;48.154;16.316;2022-09-17T14:39:07;13.20;93.30
48162;DHT22;33950;48.154;16.316;2022-09-17T14:41:57;13.10;93.30
48162;DHT22;33950;48.154;16.316;2022-09-17T14:44:51;13.10;93.30
48162;DHT22;33950;48.154;16.316;2022-09-17T14:47:39;13.10;93.40
48162;DHT22;33950;48.154;16.316;2022-09-17T14:50:25;13.10;93.50
48162;DHT22;33950;48.154;16.316;2022-09-17T14:53:15;13.10;93.60
48162;DHT22;33950;48.154;16.316;2022-09-17T14:56:02;13.10;93.50
48162;DHT22;33950;48.154;16.316;2022-09-17T14:58:52;13.10;93.60
48162;DHT22;33950;48.154;16.316;2022-09-17T15:01:45;13.00;93.60
48162;DHT22;33950;48.154;16.316;2022-09-17T15:04:32;13.10;93.80
48162;DHT22;33950;48.154;16.316;2022-09-17T15:07:19;13.20;93.60
48162;DHT22;33950;48.154;16.316;2022-09-17T15:10:08;13.20;93.50
48162;DHT22;33950;48.154;16.316;2022-09-17T15:12:57;13.30;93.50
48162;DHT22;33950;48.154;16.316;2022-09-17T15:15:53;13.30;93.50
48162;DHT22;33950;48.154;16.316;2022-09-17T15:18:41;13.40;93.50
48162;DHT22;33950;48.154;16.316;2022-09-17T15:21:32;13.50;93.30
48162;DHT22;33950;48.154;16.316;2022-09-17T15:24:22;13.50;93.50
48162;DHT22;33950;48.154;16.316;2022-09-17T15:27:14;13.50;93.50
48162;DHT22;33950;48.154;16.316;2022-09-17T15:30:05;13.50;93.50
48162;DHT22;33950;48.154;16.316;2022-09-17T15:32:56;13.40;93.60
48162;DHT22;33950;48.154;16.316;2022-09-17T15:35:57;13.30;93.70
48162;DHT22;33950;48.154;16.316;2022-09-17T15:38:44;13.30;94.00
48162;DHT22;33950;48.154;16.316;2022-09-17T15:41:32;13.20;94.00
48162;DHT22;33950;48.154;16.316;2022-09-17T15:44:21;13.20;94.20
48162;DHT22;33950;48.154;16.316;2022-09-17T15:47:33;13.20;94.20
48162;DHT22;33950;48.154;16.316;2022-09-17T15:50:22;13.20;94.20
48162;DHT22;33950;48.154;16.316;2022-09-17T15:53:19;13.20;94.30
48162;DHT22;33950;48.154;16.316;2022-09-17T15:56:07;13.20;94.40
48162;DHT22;33950;48.154;16.316;2022-09-17T15:58:59;13.10;94.50
48162;DHT22;33950;48.154;16.316;2022-09-17T16:01:51;13.20;94.50
48162;DHT22;33950;48.154;16.316;2022-09-17T16:04:38;13.10;94.60
48162;DHT22;33950;48.154;16.316;2022-09-17T16:07:28;13.00;94.50
48162;DHT22;33950;48.154;16.316;2022-09-17T16:10:15;12.90;94.60
48162;DHT22;33950;48.154;16.316;2022-09-17T16:13:01;12.90;94.80
48162;DHT22;33950;48.154;16.316;2022-09-17T16:15:47;12.80;94.70
48162;DHT22;33950;48.154;16.316;2022-09-17T16:18:33;12.80;95.00
48162;DHT22;33950;48.154;16.316;2022-09-17T16:21:19;12.70;95.30
48162;DHT22;33950;48.154;16.316;2022-09-17T16:24:07;12.70;95.30
48162;DHT22;33950;48.154;16.316;2022-09-17T16:26:53;12.70;95.70
48162;DHT22;33950;48.154;16.316;2022-09-17T16:29:39;12.60;96.20
48162;DHT22;33950;48.154;16.316;2022-09-17T16:32:25;12.50;96.40
48162;DHT22;33950;48.154;16.316;2022-09-17T16:35:12;12.50;96.60
48162;DHT22;33950;48.154;16.316;2022-09-17T16:37:59;12.60;96.60
48162;DHT22;33950;48.154;16.316;2022-09-17T16:40:46;12.60;96.60
48162;DHT22;33950;48.154;16.316;2022-09-17T16:43:32;12.50;97.10
48162;DHT22;33950;48.154;16.316;2022-09-17T16:46:19;12.30;97.50
48162;DHT22;33950;48.154;16.316;2022-09-17T16:49:05;12.10;97.90
48162;DHT22;33950;48.154;16.316;2022-09-17T16:51:51;12.00;98.50
48162;DHT22;33950;48.154;16.316;2022-09-17T16:54:37;12.00;98.60
48162;DHT22;33950;48.154;16.316;2022-09-17T16:57:25;11.90;98.50
48162;DHT22;33950;48.154;16.316;2022-09-17T17:00:13;11.90;98.60
48162;DHT22;33950;48.154;16.316;2022-09-17T17:03:01;11.90;98.80
48162;DHT22;33950;48.154;16.316;2022-09-17T17:05:48;11.90;98.90
48162;DHT22;33950;48.154;16.316;2022-09-17T17:08:34;11.80;99.00
48162;DHT22;33950;48.154;16.316;2022-09-17T17:11:20;11.70;99.50
48162;DHT22;33950;48.154;16.316;2022-09-17T17:14:07;11.70;99.30
48162;DHT22;33950;48.154;16.316;2022-09-17T17:16:53;11.70;99.50
48162;DHT22;33950;48.154;16.316;2022-09-17T17:19:40;11.80;99.80
48162;DHT22;33950;48.154;16.316;2022-09-17T17:22:26;11.70;99.90
48162;DHT22;33950;48.154;16.316;2022-09-17T17:25:13;11.60;99.90
48162;DHT22;33950;48.154;16.316;2022-09-17T17:27:59;11.50;99.90
48162;DHT22;33950;48.154;16.316;2022-09-17T17:30:47;11.40;99.90
48162;DHT22;33950;48.154;16.316;2022-09-17T17:33:33;11.40;99.90
48162;DHT22;33950;48.154;16.316;2022-09-17T17:36:20;11.30;99.90
48162;DHT22;33950;48.154;16.316;2022-09-17T17:39:06;11.30;99.90
48162;DHT22;33950;48.154;16.316;2022-09-17T17:41:53;11.30;99.90
48162;DHT22;33950;48.154;16.316;2022-09-17T17:44:40;11.20;99.90
48162;DHT22;33950;48.154;16.316;2022-09-17T17:47:27;11.20;99.90
48162;DHT22;33950;48.154;16.316;2022-09-17T17:50:14;11.20;99.90
48162;DHT22;33950;48.154;16.316;2022-09-17T17:53:00;11.20;99.90
48162;DHT22;33950;48.154;16.316;2022-09-17T17:55:57;11.30;99.90
48162;DHT22;33950;48.154;16.316;2022-09-17T17:58:43;11.20;99.90
48162;DHT22;33950;48.154;16.316;2022-09-17T18:01:30;11.30;99.90
48162;DHT22;33950;48.154;16.316;2022-09-17T18:04:18;11.10;99.80
48162;DHT22;33950;48.154;16.316;2022-09-17T18:07:04;11.10;99.60
48162;DHT22;33950;48.154;16.316;2022-09-17T18:09:50;11.20;99.10
48162;DHT22;33950;48.154;16.316;2022-09-17T18:12:36;11.20;99.00
48162;DHT22;33950;48.154;16.316;2022-09-17T18:15:22;11.30;98.70
48162;DHT22;33950;48.154;16.316;2022-09-17T18:18:08;11.40;98.50
48162;DHT22;33950;48.154;16.316;2022-09-17T18:20:59;11.40;98.30
48162;DHT22;33950;48.154;16.316;2022-09-17T18:23:46;11.40;98.40
48162;DHT22;33950;48.154;16.316;2022-09-17T18:26:32;11.30;98.40
48162;DHT22;33950;48.154;16.316;2022-09-17T18:29:19;11.40;98.50
48162;DHT22;33950;48.154;16.316;2022-09-17T18:32:05;11.30;98.60
48162;DHT22;33950;48.154;16.316;2022-09-17T18:34:51;11.20;98.70
48162;DHT22;33950;48.154;16.316;2022-09-17T18:37:38;11.10;99.10
48162;DHT22;33950;48.154;16.316;2022-09-17T18:40:24;11.10;99.50
48162;DHT22;33950;48.154;16.316;2022-09-17T18:43:10;11.10;99.20
48162;DHT22;33950;48.154;16.316;2022-09-17T18:45:57;11.10;99.30
48162;DHT22;33950;48.154;16.316;2022-09-17T18:48:43;11.00;99.30
48162;DHT22;33950;48.154;16.316;2022-09-17T18:51:30;11.10;99.20
48162;DHT22;33950;48.154;16.316;2022-09-17T18:54:17;11.20;99.10
48162;DHT22;33950;48.154;16.316;2022-09-17T18:57:03;11.20;99.10
48162;DHT22;33950;48.154;16.316;2022-09-17T18:59:49;11.10;99.00
48162;DHT22;33950;48.154;16.316;2022-09-17T19:02:36;11.10;99.00
48162;DHT22;33950;48.154;16.316;2022-09-17T19:05:22;11.10;99.30
48162;DHT22;33950;48.154;16.316;2022-09-17T19:08:08;11.20;99.00
48162;DHT22;33950;48.154;16.316;2022-09-17T19:10:56;11.20;99.00
48162;DHT22;33950;48.154;16.316;2022-09-17T19:13:45;11.20;98.80
48162;DHT22;33950;48.154;16.316;2022-09-17T19:16:31;11.40;98.60
48162;DHT22;33950;48.154;16.316;2022-09-17T19:19:17;11.40;98.60
48162;DHT22;33950;48.154;16.316;2022-09-17T19:22:03;11.50;98.30
48162;DHT22;33950;48.154;16.316;2022-09-17T19:24:49;11.60;98.20
48162;DHT22;33950;48.154;16.316;2022-09-17T19:27:37;11.60;98.20
48162;DHT22;33950;48.154;16.316;2022-09-17T19:30:23;11.70;98.20
48162;DHT22;33950;48.154;16.316;2022-09-17T19:33:09;11.70;98.10
48162;DHT22;33950;48.154;16.316;2022-09-17T19:35:58;11.70;97.90
48162;DHT22;33950;48.154;16.316;2022-09-17T19:38:45;11.80;97.90
48162;DHT22;33950;48.154;16.316;2022-09-17T19:41:31;11.80;97.80
48162;DHT22;33950;48.154;16.316;2022-09-17T19:44:22;11.70;97.80
48162;DHT22;33950;48.154;16.316;2022-09-17T19:47:08;11.80;97.70
48162;DHT22;33950;48.154;16.316;2022-09-17T19:49:54;11.70;98.00
48162;DHT22;33950;48.154;16.316;2022-09-17T19:52:41;11.80;97.80
48162;DHT22;33950;48.154;16.316;2022-09-17T19:55:27;11.70;98.10
48162;DHT22;33950;48.154;16.316;2022-09-17T19:58:13;11.70;98.40
48162;DHT22;33950;48.154;16.316;2022-09-17T20:01:01;11.70;98.50
48162;DHT22;33950;48.154;16.316;2022-09-17T20:03:47;11.70;98.60
48162;DHT22;33950;48.154;16.316;2022-09-17T20:06:33;11.60;98.70
48162;DHT22;33950;48.154;16.316;2022-09-17T20:09:20;11.60;98.70
48162;DHT22;33950;48.154;16.316;2022-09-17T20:12:06;11.50;98.40
48162;DHT22;33950;48.154;16.316;2022-09-17T20:14:52;11.40;98.60
48162;DHT22;33950;48.154;16.316;2022-09-17T20:17:39;11.40;98.50
48162;DHT22;33950;48.154;16.316;2022-09-17T20:20:25;11.30;98.40
48162;DHT22;33950;48.154;16.316;2022-09-17T20:23:13;11.30;98.60
